Knossos Palace — SYQO — position and weather

sailwx.info

Track history (hours):
 
Tides and Currents Weather Stations Pressure Air Temp Water Temp Dewpoint Dewpoint Depression Visibility Wind Speed Wind Dir Waves Ship Positions

Knossos Palace

Last reported at 2016-Jun-29 21:04 UTC. Time now 2016-Jun-30 12:18 UTC.
Position N 37°12' E 023°56'.

Length 214 m; beam 26.4 m; draft 7.3 m.

Type: Ship. MMSI: 237641000.

Date/timePositionNaut miles runAvg speedWind from/ knotsBaromVisibWave heightAir tempDewpointWater temp
2016-Jun-29 21:04N 37°12' E 023°56'1020.2
2016-Jun-29 20:33N 37°21' E 023°51'2019.9
2016-Jun-29 19:33N 37°40' E 023°42'1717.1
2016-Jun-29 18:34N 37°56' E 023°37'1 0.6
2016-Jun-29 17:33N 37°57' E 023°38'0 0.0
2016-Jun-29 16:32N 37°57' E 023°38'0 0.0
2016-Jun-29 15:32N 37°57' E 023°38'0 0.0
2016-Jun-29 14:32N 37°57' E 023°38'0 0.0
2016-Jun-29 13:32N 37°57' E 023°38'0 0.0
2016-Jun-29 12:32N 37°57' E 023°38'0 0.0
2016-Jun-29 11:32N 37°57' E 023°38'0 0.0
2016-Jun-29 10:32N 37°57' E 023°38'0 0.0
2016-Jun-29 09:32N 37°57' E 023°38'0 0.0
2016-Jun-29 08:32N 37°57' E 023°38'0 0.0
2016-Jun-29 07:32N 37°57' E 023°38'0 0.0
2016-Jun-29 06:32N 37°57' E 023°38'0 0.0
2016-Jun-29 05:32N 37°57' E 023°38'0 0.0
2016-Jun-29 04:32N 37°57' E 023°38'0 0.0
2016-Jun-29 03:33N 37°57' E 023°38'1312.7
2016-Jun-29 02:33N 37°45' E 023°44'2120.5
2016-Jun-29 01:33N 37°25' E 023°53'2120.7
2016-Jun-29 00:34N 37°06' E 024°02'2020.2
2016-Jun-28 23:33N 36°47' E 024°11'19 0.8
2016-Jun-27 23:10N 36°30' E 024°19'1519.3
2016-Jun-27 22:25N 36°43' E 024°11'1618.8
2016-Jun-27 21:33N 36°58' E 024°03'1919.4
2016-Jun-27 20:33N 37°16' E 023°54'1918.9
2016-Jun-27 19:33N 37°33' E 023°45'1918.6
2016-Jun-27 18:33N 37°51' E 023°37'6 5.9
2016-Jun-27 17:33N 37°57' E 023°38'0 0.0
2016-Jun-27 16:33N 37°57' E 023°38'0 0.0
2016-Jun-27 15:33N 37°57' E 023°38'0 0.0
2016-Jun-27 14:33N 37°57' E 023°38'0 0.0
2016-Jun-27 13:33N 37°57' E 023°38'0 0.0
2016-Jun-27 12:33N 37°57' E 023°38'0 0.0
2016-Jun-27 11:33N 37°57' E 023°38'0 0.0
2016-Jun-27 10:33N 37°57' E 023°38'0 0.0
2016-Jun-27 09:33N 37°57' E 023°38'0 0.0
2016-Jun-27 08:33N 37°57' E 023°38'0 0.0
2016-Jun-27 07:33N 37°57' E 023°38'0 0.0
2016-Jun-27 06:33N 37°57' E 023°38'0 0.0
2016-Jun-27 05:33N 37°57' E 023°38'0 0.0
2016-Jun-27 04:33N 37°57' E 023°38'0 0.0
2016-Jun-27 03:33N 37°57' E 023°38'1413.7
2016-Jun-27 02:34N 37°44' E 023°44'2120.6
2016-Jun-27 01:33N 37°24' E 023°53'1324.1
2016-Jun-27 01:00N 37°12' E 024°00'11 0.4 999 / 81009.9 5.4 24.022.626.0
2016-Jun-25 20:25N 37°21' E 023°52'1618.7
2016-Jun-25 19:33N 37°36' E 023°45'1818.5
2016-Jun-25 18:33N 37°53' E 023°37'4 3.5
2016-Jun-25 17:33N 37°57' E 023°38'0 0.0
2016-Jun-25 16:33N 37°57' E 023°38'0 0.0
2016-Jun-25 15:33N 37°57' E 023°38'0 0.0
2016-Jun-25 14:33N 37°57' E 023°38'0 0.0
2016-Jun-25 13:33N 37°57' E 023°38'0 0.0
2016-Jun-25 12:33N 37°57' E 023°38'0 0.0
2016-Jun-25 11:33N 37°57' E 023°38'0 0.0
2016-Jun-25 10:33N 37°57' E 023°38'0 0.0
2016-Jun-25 09:33N 37°57' E 023°38'0 0.0
2016-Jun-25 08:33N 37°57' E 023°38'0 0.0
2016-Jun-25 07:33N 37°57' E 023°38'0 0.0
2016-Jun-25 06:33N 37°57' E 023°38'0 0.0
2016-Jun-25 05:33N 37°57' E 023°38'0 0.0
2016-Jun-25 04:33N 37°57' E 023°38'0 0.1
2016-Jun-25 03:33N 37°57' E 023°38'1414.0
2016-Jun-25 02:34N 37°43' E 023°44'2120.5
2016-Jun-25 01:33N 37°24' E 023°53'93 3.8
2016-Jun-24 01:00N 36°00' E 024°42'9320.0 320 / 151009.910.8 25.022.226.0
2016-Jun-23 20:20N 37°23' E 023°51'1519.3
2016-Jun-23 19:33N 37°37' E 023°44'1918.7
2016-Jun-23 18:33N 37°55' E 023°37'2 1.6
2016-Jun-23 17:33N 37°57' E 023°38'0 0.0
2016-Jun-23 16:33N 37°57' E 023°38'0 0.0
2016-Jun-23 15:33N 37°57' E 023°38'0 0.0
2016-Jun-23 14:33N 37°57' E 023°38'0 0.0
2016-Jun-23 13:33N 37°57' E 023°38'0 0.0
2016-Jun-23 12:33N 37°57' E 023°38'0 0.0
2016-Jun-23 11:33N 37°57' E 023°38'0 0.0
2016-Jun-23 10:33N 37°57' E 023°38'0 0.0
2016-Jun-23 09:33N 37°57' E 023°38'0 0.0
2016-Jun-23 08:34N 37°57' E 023°38'0 0.0
2016-Jun-23 07:33N 37°57' E 023°38'0 0.0
2016-Jun-23 05:33N 37°57' E 023°38'0 0.0
2016-Jun-23 04:33N 37°57' E 023°38'0 0.1
2016-Jun-23 03:33N 37°57' E 023°38'1312.8
2016-Jun-23 02:34N 37°44' E 023°44'2120.9
2016-Jun-23 01:34N 37°25' E 023°53'20 0.7
2016-Jun-21 21:16N 37°06' E 023°60'1419.4
2016-Jun-21 20:33N 37°19' E 023°53'1919.2
2016-Jun-21 19:33N 37°37' E 023°44'1919.0
2016-Jun-21 18:33N 37°55' E 023°37'2 2.1
2016-Jun-21 17:31N 37°57' E 023°38'0 0.0
2016-Jun-21 16:31N 37°57' E 023°38'0 0.0
2016-Jun-21 15:31N 37°57' E 023°38'0 0.0
2016-Jun-21 14:31N 37°57' E 023°38'0 0.0
2016-Jun-21 13:31N 37°57' E 023°38'0 0.0
2016-Jun-21 12:31N 37°57' E 023°38'0 0.0
2016-Jun-21 11:31N 37°57' E 023°38'0 0.0
2016-Jun-21 04:11N 37°57' E 023°38'1 1.0
2016-Jun-21 03:33N 37°56' E 023°37'1414.4
2016-Jun-21 02:33N 37°43' E 023°44'2020.5
2016-Jun-21 01:33N 37°24' E 023°53'1322.9
2016-Jun-21 01:00N 37°12' E 024°00'717.0 040 / 101011.910.8 25.022.227.0
2016-Jun-21 00:33N 37°05' E 024°02'2020.1
2016-Jun-20 23:33N 36°46' E 024°11'52 2.3
2016-Jun-20 01:00N 36°00' E 024°42'6919.4 999 / 81009.910.8 25.022.226.0
2016-Jun-19 21:25N 37°01' E 024°02'  
Track history (hours):
 
Tides and Currents Weather Stations Pressure Air Temp Water Temp Dewpoint Dewpoint Depression Visibility Wind Speed Wind Dir Waves Ship Positions

Knossos Palace

Last reported at 2016-Jun-29 21:04 UTC. Time now 2016-Jun-30 12:18 UTC.
Position N 37°12' E 023°56'.

Length 214 m; beam 26.4 m; draft 7.3 m.

Type: Ship. MMSI: 237641000.

Date/timePositionNaut miles runAvg speedWind from/ knotsBaromVisibWave heightAir tempDewpointWater temp
2016-Jun-29 21:04N 37°12' E 023°56'1020.2
2016-Jun-29 20:33N 37°21' E 023°51'2019.9
2016-Jun-29 19:33N 37°40' E 023°42'1717.1
2016-Jun-29 18:34N 37°56' E 023°37'1 0.6
2016-Jun-29 17:33N 37°57' E 023°38'0 0.0
2016-Jun-29 16:32N 37°57' E 023°38'0 0.0
2016-Jun-29 15:32N 37°57' E 023°38'0 0.0
2016-Jun-29 14:32N 37°57' E 023°38'0 0.0
2016-Jun-29 13:32N 37°57' E 023°38'0 0.0
2016-Jun-29 12:32N 37°57' E 023°38'0 0.0
2016-Jun-29 11:32N 37°57' E 023°38'0 0.0
2016-Jun-29 10:32N 37°57' E 023°38'0 0.0
2016-Jun-29 09:32N 37°57' E 023°38'0 0.0
2016-Jun-29 08:32N 37°57' E 023°38'0 0.0
2016-Jun-29 07:32N 37°57' E 023°38'0 0.0
2016-Jun-29 06:32N 37°57' E 023°38'0 0.0
2016-Jun-29 05:32N 37°57' E 023°38'0 0.0
2016-Jun-29 04:32N 37°57' E 023°38'0 0.0
2016-Jun-29 03:33N 37°57' E 023°38'1312.7
2016-Jun-29 02:33N 37°45' E 023°44'2120.5
2016-Jun-29 01:33N 37°25' E 023°53'2120.7
2016-Jun-29 00:34N 37°06' E 024°02'2020.2
2016-Jun-28 23:33N 36°47' E 024°11'19 0.8
2016-Jun-27 23:10N 36°30' E 024°19'1519.3
2016-Jun-27 22:25N 36°43' E 024°11'1618.8
2016-Jun-27 21:33N 36°58' E 024°03'1919.4
2016-Jun-27 20:33N 37°16' E 023°54'1918.9
2016-Jun-27 19:33N 37°33' E 023°45'1918.6
2016-Jun-27 18:33N 37°51' E 023°37'6 5.9
2016-Jun-27 17:33N 37°57' E 023°38'0 0.0
2016-Jun-27 16:33N 37°57' E 023°38'0 0.0
2016-Jun-27 15:33N 37°57' E 023°38'0 0.0
2016-Jun-27 14:33N 37°57' E 023°38'0 0.0
2016-Jun-27 13:33N 37°57' E 023°38'0 0.0
2016-Jun-27 12:33N 37°57' E 023°38'0 0.0
2016-Jun-27 11:33N 37°57' E 023°38'0 0.0
2016-Jun-27 10:33N 37°57' E 023°38'0 0.0
2016-Jun-27 09:33N 37°57' E 023°38'0 0.0
2016-Jun-27 08:33N 37°57' E 023°38'0 0.0
2016-Jun-27 07:33N 37°57' E 023°38'0 0.0
2016-Jun-27 06:33N 37°57' E 023°38'0 0.0
2016-Jun-27 05:33N 37°57' E 023°38'0 0.0
2016-Jun-27 04:33N 37°57' E 023°38'0 0.0
2016-Jun-27 03:33N 37°57' E 023°38'1413.7
2016-Jun-27 02:34N 37°44' E 023°44'2120.6
2016-Jun-27 01:33N 37°24' E 023°53'1324.1
2016-Jun-27 01:00N 37°12' E 024°00'11 0.4 999 / 81009.9 5.4 24.022.626.0
2016-Jun-25 20:25N 37°21' E 023°52'1618.7
2016-Jun-25 19:33N 37°36' E 023°45'1818.5
2016-Jun-25 18:33N 37°53' E 023°37'4 3.5
2016-Jun-25 17:33N 37°57' E 023°38'0 0.0
2016-Jun-25 16:33N 37°57' E 023°38'0 0.0
2016-Jun-25 15:33N 37°57' E 023°38'0 0.0
2016-Jun-25 14:33N 37°57' E 023°38'0 0.0
2016-Jun-25 13:33N 37°57' E 023°38'0 0.0
2016-Jun-25 12:33N 37°57' E 023°38'0 0.0
2016-Jun-25 11:33N 37°57' E 023°38'0 0.0
2016-Jun-25 10:33N 37°57' E 023°38'0 0.0
2016-Jun-25 09:33N 37°57' E 023°38'0 0.0
2016-Jun-25 08:33N 37°57' E 023°38'0 0.0
2016-Jun-25 07:33N 37°57' E 023°38'0 0.0
2016-Jun-25 06:33N 37°57' E 023°38'0 0.0
2016-Jun-25 05:33N 37°57' E 023°38'0 0.0
2016-Jun-25 04:33N 37°57' E 023°38'0 0.1
2016-Jun-25 03:33N 37°57' E 023°38'1414.0
2016-Jun-25 02:34N 37°43' E 023°44'2120.5
2016-Jun-25 01:33N 37°24' E 023°53'93 3.8
2016-Jun-24 01:00N 36°00' E 024°42'9320.0 320 / 151009.910.8 25.022.226.0
2016-Jun-23 20:20N 37°23' E 023°51'1519.3
2016-Jun-23 19:33N 37°37' E 023°44'1918.7
2016-Jun-23 18:33N 37°55' E 023°37'2 1.6
2016-Jun-23 17:33N 37°57' E 023°38'0 0.0
2016-Jun-23 16:33N 37°57' E 023°38'0 0.0
2016-Jun-23 15:33N 37°57' E 023°38'0 0.0
2016-Jun-23 14:33N 37°57' E 023°38'0 0.0
2016-Jun-23 13:33N 37°57' E 023°38'0 0.0
2016-Jun-23 12:33N 37°57' E 023°38'0 0.0
2016-Jun-23 11:33N 37°57' E 023°38'0 0.0
2016-Jun-23 10:33N 37°57' E 023°38'0 0.0
2016-Jun-23 09:33N 37°57' E 023°38'0 0.0
2016-Jun-23 08:34N 37°57' E 023°38'0 0.0
2016-Jun-23 07:33N 37°57' E 023°38'0 0.0
2016-Jun-23 05:33N 37°57' E 023°38'0 0.0
2016-Jun-23 04:33N 37°57' E 023°38'0 0.1
2016-Jun-23 03:33N 37°57' E 023°38'1312.8
2016-Jun-23 02:34N 37°44' E 023°44'2120.9
2016-Jun-23 01:34N 37°25' E 023°53'20 0.7
2016-Jun-21 21:16N 37°06' E 023°60'1419.4
2016-Jun-21 20:33N 37°19' E 023°53'1919.2
2016-Jun-21 19:33N 37°37' E 023°44'1919.0
2016-Jun-21 18:33N 37°55' E 023°37'2 2.1
2016-Jun-21 17:31N 37°57' E 023°38'0 0.0
2016-Jun-21 16:31N 37°57' E 023°38'0 0.0
2016-Jun-21 15:31N 37°57' E 023°38'0 0.0
2016-Jun-21 14:31N 37°57' E 023°38'0 0.0
2016-Jun-21 13:31N 37°57' E 023°38'0 0.0
2016-Jun-21 12:31N 37°57' E 023°38'0 0.0
2016-Jun-21 11:31N 37°57' E 023°38'0 0.0
2016-Jun-21 04:11N 37°57' E 023°38'1 1.0
2016-Jun-21 03:33N 37°56' E 023°37'1414.4
2016-Jun-21 02:33N 37°43' E 023°44'2020.5
2016-Jun-21 01:33N 37°24' E 023°53'1322.9
2016-Jun-21 01:00N 37°12' E 024°00'717.0 040 / 101011.910.8 25.022.227.0
2016-Jun-21 00:33N 37°05' E 024°02'2020.1
2016-Jun-20 23:33N 36°46' E 024°11'52 2.3
2016-Jun-20 01:00N 36°00' E 024°42'6919.4 999 / 81009.910.8 25.022.226.0
2016-Jun-19 21:25N 37°01' E 024°02'  

Dump ship's entire track history